Time;durP1;ratioP1;P1;durP2;ratioP2;P2;SDS_P1;SDS_P2;PMS_P1;PMS_P2;Temp;Humidity;BMP_temperature;BMP_pressure;BME280_temperature;BME280_humidity;BME280_pressure;Samples;Min_cycle;Max_cycle;Signal;HPM_P1;HPM_P2
2021/06/14 00:01:07;;;;;;;4.47;3.83;;;17.20;99.90;;;;;;5104209;28;20440;-82
2021/06/14 00:03:33;;;;;;;3.33;2.90;;;17.10;99.90;;;;;;5105018;28;20163;-83
2021/06/14 00:05:59;;;;;;;6.77;3.80;;;17.00;99.90;;;;;;5105157;28;20656;-83
2021/06/14 00:08:25;;;;;;;4.57;3.10;;;17.10;99.90;;;;;;5105548;28;20186;-80
2021/06/14 00:10:53;;;;;;;3.40;3.20;;;17.10;99.90;;;;;;5109769;28;20159;-80
2021/06/14 00:13:20;;;;;;;4.93;3.77;;;17.10;99.90;;;;;;5106118;28;20455;-82
2021/06/14 00:15:47;;;;;;;4.80;2.90;;;17.00;99.90;;;;;;5105372;28;20404;-82
2021/06/14 00:18:14;;;;;;;3.30;2.83;;;16.90;99.90;;;;;;5106392;28;20419;-80
2021/06/14 00:20:44;;;;;;;4.97;3.93;;;16.80;99.90;;;;;;5108605;28;20436;-80
2021/06/14 00:23:10;;;;;;;4.17;3.77;;;16.70;99.90;;;;;;5109128;28;20404;-82
2021/06/14 00:25:39;;;;;;;4.07;3.70;;;16.70;99.90;;;;;;5107814;28;20427;-82
2021/06/14 00:28:06;;;;;;;4.23;3.83;;;16.80;99.90;;;;;;5108902;28;20744;-83
2021/06/14 00:30:38;;;;;;;4.47;3.70;;;16.80;99.90;;;;;;5108462;28;20397;-83
2021/06/14 00:33:05;;;;;;;3.60;3.30;;;16.90;99.90;;;;;;5108461;28;20465;-83
2021/06/14 00:35:31;;;;;;;5.43;3.20;;;16.90;99.90;;;;;;5110981;28;20428;-82
2021/06/14 00:37:57;;;;;;;7.10;3.20;;;16.80;99.90;;;;;;5109493;28;20397;-83
2021/06/14 00:40:23;;;;;;;7.93;4.27;;;16.80;99.90;;;;;;5108943;28;20468;-83
2021/06/14 00:42:49;;;;;;;4.23;3.83;;;16.70;99.90;;;;;;5107819;28;20445;-83
2021/06/14 00:45:18;;;;;;;4.50;3.50;;;16.80;99.90;;;;;;5107833;28;20181;-82
2021/06/14 00:47:46;;;;;;;8.93;4.30;;;16.60;99.90;;;;;;5109489;28;20393;-82
2021/06/14 00:50:14;;;;;;;8.90;4.00;;;16.70;99.90;;;;;;5107861;28;20479;-82
2021/06/14 00:52:40;;;;;;;4.83;3.27;;;16.50;99.90;;;;;;5090620;28;20449;-82
2021/06/14 00:55:09;;;;;;;3.07;2.77;;;16.30;99.90;;;;;;5107978;28;20396;-82
2021/06/14 00:57:35;;;;;;;4.20;3.80;;;16.10;99.90;;;;;;5119345;28;20397;-81
2021/06/14 01:00:01;;;;;;;4.17;3.80;;;16.30;99.90;;;;;;5119800;28;20447;-78
2021/06/14 01:02:27;;;;;;;3.77;3.47;;;16.20;99.90;;;;;;5119618;28;20405;-82
2021/06/14 01:04:54;;;;;;;4.83;3.17;;;16.10;99.90;;;;;;5119309;28;20397;-83
2021/06/14 01:07:20;;;;;;;6.80;4.20;;;16.20;99.90;;;;;;5117221;28;20432;-83
2021/06/14 01:09:46;;;;;;;14.17;3.73;;;16.30;99.90;;;;;;5108629;28;20397;-82
2021/06/14 01:12:18;;;;;;;6.33;3.67;;;16.40;99.90;;;;;;5107177;28;20170;-82
2021/06/14 01:14:54;;;;;;;3.63;3.33;;;16.40;99.90;;;;;;5108613;28;20404;-82
2021/06/14 01:17:40;;;;;;;5.30;4.23;;;16.30;99.90;;;;;;5108999;28;20399;-82
2021/06/14 01:20:31;;;;;;;4.03;3.73;;;16.40;99.90;;;;;;5106863;28;20450;-84
2021/06/14 01:23:24;;;;;;;7.50;4.33;;;16.40;99.90;;;;;;5108053;28;20488;-82
2021/06/14 01:25:55;;;;;;;4.30;2.70;;;16.30;99.90;;;;;;5107781;28;20409;-83
2021/06/14 01:28:22;;;;;;;4.67;3.37;;;16.20;99.90;;;;;;5107553;28;20882;-83
2021/06/14 01:30:50;;;;;;;3.10;2.80;;;16.30;99.90;;;;;;5106290;28;20767;-83
2021/06/14 01:33:20;;;;;;;5.70;3.70;;;16.30;99.90;;;;;;5105895;28;20456;-83
2021/06/14 01:35:49;;;;;;;3.07;2.87;;;16.30;99.90;;;;;;5089729;28;20432;-83
2021/06/14 01:38:17;;;;;;;9.30;3.80;;;16.20;99.90;;;;;;5107718;28;20408;-82
2021/06/14 01:40:46;;;;;;;4.63;4.00;;;16.10;99.90;;;;;;5105457;28;20468;-83
2021/06/14 01:43:15;;;;;;;4.63;3.40;;;16.10;99.90;;;;;;5107322;28;20404;-82
2021/06/14 01:45:46;;;;;;;4.33;3.17;;;16.20;99.90;;;;;;5106796;28;20415;-83
2021/06/14 01:48:14;;;;;;;4.37;3.20;;;15.60;99.90;;;;;;5105227;28;20405;-82
2021/06/14 01:50:41;;;;;;;4.50;2.93;;;15.60;99.90;;;;;;5106690;28;20392;-82
2021/06/14 01:53:07;;;;;;;6.33;4.17;;;15.50;99.90;;;;;;5106991;28;20434;-82
2021/06/14 01:55:35;;;;;;;5.13;3.80;;;15.30;99.90;;;;;;5106875;28;20412;-82
2021/06/14 01:58:02;;;;;;;4.30;3.90;;;15.20;99.90;;;;;;5106619;28;20409;-83
2021/06/14 02:00:29;;;;;;;5.13;3.87;;;15.50;99.90;;;;;;5105669;28;20444;-83
2021/06/14 02:02:55;;;;;;;4.50;3.63;;;15.60;99.90;;;;;;5106842;28;20909;-83
2021/06/14 02:05:25;;;;;;;5.47;3.60;;;15.70;99.90;;;;;;5105161;28;20393;-82
2021/06/14 02:07:52;;;;;;;6.10;3.47;;;15.80;99.90;;;;;;5107014;28;20435;-83
2021/06/14 02:10:21;;;;;;;4.60;4.07;;;15.90;99.90;;;;;;5106244;28;20404;-82
2021/06/14 02:12:48;;;;;;;4.90;4.40;;;15.80;99.90;;;;;;5106367;28;20397;-82
2021/06/14 02:15:16;;;;;;;3.00;2.80;;;15.90;99.90;;;;;;5106362;28;20469;-82
2021/06/14 02:17:43;;;;;;;6.90;3.60;;;15.80;99.90;;;;;;5106103;28;20871;-81
2021/06/14 02:20:10;;;;;;;5.97;4.23;;;15.80;99.90;;;;;;5106194;28;20504;-81
2021/06/14 02:22:37;;;;;;;4.40;4.10;;;15.80;99.90;;;;;;5104913;28;20400;-82
2021/06/14 02:25:05;;;;;;;7.67;3.67;;;15.70;99.90;;;;;;5106715;28;20844;-81
2021/06/14 02:27:31;;;;;;;4.27;3.80;;;15.70;99.90;;;;;;5106314;28;20397;-81
2021/06/14 02:29:57;;;;;;;4.30;3.60;;;15.50;99.90;;;;;;5108877;28;20401;-79
2021/06/14 02:32:23;;;;;;;4.13;3.70;;;15.50;99.90;;;;;;5107664;28;20897;-79
2021/06/14 02:34:50;;;;;;;4.80;4.40;;;15.40;99.90;;;;;;5107371;28;20401;-79
2021/06/14 02:37:17;;;;;;;4.00;3.50;;;15.30;99.90;;;;;;5107794;28;20184;-79
2021/06/14 02:39:46;;;;;;;5.50;3.73;;;15.40;99.90;;;;;;5107793;28;20988;-79
2021/06/14 02:42:12;;;;;;;4.23;3.37;;;15.30;99.90;;;;;;5108331;28;20397;-79
2021/06/14 02:44:40;;;;;;;3.53;3.23;;;15.30;99.90;;;;;;5106694;28;20487;-79
2021/06/14 02:47:10;;;;;;;6.93;4.27;;;15.30;99.90;;;;;;5105999;28;20397;-79
2021/06/14 02:49:37;;;;;;;4.83;4.43;;;15.30;99.90;;;;;;5107033;28;20408;-79
2021/06/14 02:52:06;;;;;;;6.30;4.30;;;15.30;99.90;;;;;;5106964;28;20450;-80
2021/06/14 02:54:37;;;;;;;8.70;4.60;;;15.30;99.90;;;;;;5106789;28;20397;-79
2021/06/14 02:57:07;;;;;;;6.70;4.50;;;15.20;99.90;;;;;;5107257;28;20404;-79
2021/06/14 02:59:34;;;;;;;4.30;3.70;;;15.20;99.90;;;;;;5107571;28;20440;-79
2021/06/14 03:02:00;;;;;;;5.80;3.77;;;15.20;99.90;;;;;;5107619;28;20476;-79
2021/06/14 03:04:27;;;;;;;6.13;3.87;;;14.90;99.90;;;;;;5107334;28;20393;-79
2021/06/14 03:06:53;;;;;;;6.70;4.90;;;14.70;99.90;;;;;;5107995;28;20408;-79
2021/06/14 03:09:21;;;;;;;7.00;4.20;;;14.80;99.90;;;;;;5108371;28;20432;-79
2021/06/14 03:11:47;;;;;;;10.33;4.90;;;14.90;99.90;;;;;;5107532;28;20809;-79
2021/06/14 03:14:15;;;;;;;6.47;3.63;;;14.90;99.90;;;;;;5107578;28;20411;-79
2021/06/14 03:16:43;;;;;;;5.33;4.13;;;15.00;99.90;;;;;;5107123;28;20403;-79
2021/06/14 03:19:10;;;;;;;6.47;3.90;;;15.00;99.90;;;;;;5107982;28;20449;-81
2021/06/14 03:21:37;;;;;;;5.00;4.07;;;15.00;99.90;;;;;;5106585;28;20400;-79
2021/06/14 03:24:03;;;;;;;5.07;4.00;;;14.90;99.90;;;;;;5107898;28;20401;-79
2021/06/14 03:26:34;;;;;;;4.73;4.33;;;14.90;99.90;;;;;;5090588;28;20446;-79
2021/06/14 03:29:00;;;;;;;3.90;3.60;;;15.00;99.90;;;;;;5107601;28;20408;-79
2021/06/14 03:31:28;;;;;;;5.43;4.60;;;15.00;99.90;;;;;;5107893;28;20401;-79
2021/06/14 03:33:54;;;;;;;5.30;4.27;;;15.00;99.90;;;;;;5107434;28;20403;-79
2021/06/14 03:36:22;;;;;;;8.93;4.13;;;15.00;99.90;;;;;;5106695;28;20403;-79
2021/06/14 03:38:50;;;;;;;6.00;4.80;;;14.90;99.90;;;;;;5106837;28;20421;-79
2021/06/14 03:41:18;;;;;;;4.90;4.32;;;15.00;99.90;;;;;;5107322;28;20800;-79
2021/06/14 03:43:44;;;;;;;6.47;4.20;;;14.90;99.90;;;;;;5107490;28;20170;-80
2021/06/14 03:46:10;;;;;;;5.57;4.20;;;14.90;99.90;;;;;;5106730;28;20390;-80
2021/06/14 03:48:37;;;;;;;11.20;4.20;;;14.80;99.90;;;;;;5105574;28;20438;-82
2021/06/14 03:51:04;;;;;;;7.33;4.20;;;14.70;99.90;;;;;;5105066;28;20271;-81
2021/06/14 03:53:31;;;;;;;7.40;3.90;;;14.60;99.90;;;;;;5105026;28;20405;-79
2021/06/14 03:56:02;;;;;;;5.63;4.83;;;14.70;99.90;;;;;;5106610;28;20404;-79
2021/06/14 03:58:28;;;;;;;5.43;4.90;;;14.80;99.90;;;;;;5115214;28;20397;-82
2021/06/14 04:00:54;;;;;;;8.47;4.30;;;14.80;99.90;;;;;;5118264;28;20436;-80
2021/06/14 04:03:21;;;;;;;5.20;4.40;;;14.70;99.90;;;;;;5119877;28;20250;-81
2021/06/14 04:05:47;;;;;;;4.17;3.77;;;14.70;99.90;;;;;;5114344;28;20465;-80
2021/06/14 04:08:13;;;;;;;7.67;5.10;;;14.30;99.90;;;;;;5113699;28;20432;-80
2021/06/14 04:10:39;;;;;;;15.13;5.00;;;13.90;99.90;;;;;;5115318;28;20239;-80
2021/06/14 04:13:08;;;;;;;5.37;3.97;;;13.70;99.90;;;;;;5115297;28;20408;-80
2021/06/14 04:15:34;;;;;;;4.00;3.60;;;13.80;99.90;;;;;;5114713;28;20405;-80
2021/06/14 04:18:00;;;;;;;4.67;4.20;;;13.80;99.90;;;;;;5115464;28;20468;-80
2021/06/14 04:20:26;;;;;;;4.80;4.30;;;13.70;99.90;;;;;;5115022;28;20461;-80
2021/06/14 04:22:52;;;;;;;5.90;4.87;;;14.30;99.90;;;;;;5114764;28;20154;-80
2021/06/14 04:25:18;;;;;;;6.70;4.77;;;14.50;99.90;;;;;;5115196;28;20393;-80
2021/06/14 04:27:45;;;;;;;9.00;5.37;;;14.70;99.90;;;;;;5114687;28;20183;-80
2021/06/14 04:30:12;;;;;;;6.57;4.57;;;14.90;99.90;;;;;;5113468;28;20396;-79
2021/06/14 04:32:38;;;;;;;10.80;5.23;;;15.00;99.90;;;;;;5115672;28;20465;-80
2021/06/14 04:35:06;;;;;;;10.20;4.90;;;15.20;99.90;;;;;;5115913;28;20408;-79
2021/06/14 04:37:32;;;;;;;4.80;4.40;;;15.30;99.90;;;;;;5115668;28;20170;-80
2021/06/14 04:39:59;;;;;;;11.60;6.43;;;15.40;99.90;;;;;;5113938;28;20472;-80
2021/06/14 04:42:27;;;;;;;6.63;4.50;;;15.50;99.90;;;;;;5113277;28;20420;-80
2021/06/14 04:44:53;;;;;;;5.53;4.17;;;15.40;99.90;;;;;;5114009;28;20401;-80
2021/06/14 04:47:20;;;;;;;7.63;4.67;;;15.50;99.90;;;;;;5113160;28;20401;-80
2021/06/14 04:49:46;;;;;;;5.47;4.93;;;15.60;99.90;;;;;;5114129;28;20520;-80
2021/06/14 04:52:12;;;;;;;6.70;3.77;;;15.60;99.90;;;;;;5115237;28;20473;-80
2021/06/14 04:54:38;;;;;;;6.60;4.27;;;15.20;99.90;;;;;;5115389;28;20385;-80
2021/06/14 04:57:04;;;;;;;6.63;4.30;;;15.00;99.90;;;;;;5114364;28;20158;-82
2021/06/14 04:59:30;;;;;;;8.13;6.50;;;15.20;99.90;;;;;;5096580;28;20254;-80
2021/06/14 05:01:56;;;;;;;6.27;4.60;;;15.30;99.90;;;;;;5115025;28;20408;-80
2021/06/14 05:04:22;;;;;;;5.83;4.20;;;15.10;99.90;;;;;;5111046;28;20513;-84
2021/06/14 05:06:48;;;;;;;8.97;4.63;;;14.90;99.90;;;;;;5105478;28;20408;-83
2021/06/14 05:09:13;;;;;;;4.53;4.20;;;15.30;99.90;;;;;;5102980;28;20198;-83
2021/06/14 05:11:39;;;;;;;7.20;4.53;;;15.40;99.90;;;;;;5105222;28;20167;-83
2021/06/14 05:14:06;;;;;;;10.23;5.10;;;14.80;99.90;;;;;;5105712;28;20521;-83
2021/06/14 05:16:31;;;;;;;5.07;4.40;;;14.50;99.90;;;;;;5105518;28;20815;-82
2021/06/14 05:18:58;;;;;;;7.23;5.27;;;14.70;99.90;;;;;;5104329;28;20426;-83
2021/06/14 05:21:24;;;;;;;5.57;4.10;;;14.90;99.90;;;;;;5105301;28;20493;-82
2021/06/14 05:23:50;;;;;;;7.83;4.43;;;14.80;99.90;;;;;;5104321;28;20397;-83
2021/06/14 05:26:16;;;;;;;5.23;4.73;;;15.00;99.90;;;;;;5105587;28;20473;-83
2021/06/14 05:28:42;;;;;;;4.70;4.30;;;15.40;99.90;;;;;;5105373;28;20480;-82
2021/06/14 05:31:09;;;;;;;4.40;4.00;;;15.50;99.90;;;;;;5104910;28;20170;-83
2021/06/14 05:33:35;;;;;;;8.23;5.40;;;15.60;99.90;;;;;;5102962;28;20869;-83
2021/06/14 05:36:01;;;;;;;6.10;4.57;;;15.70;99.90;;;;;;5084532;28;20428;-83
2021/06/14 05:38:27;;;;;;;7.87;4.90;;;16.00;99.90;;;;;;5104370;28;20301;-84
2021/06/14 05:40:52;;;;;;;6.17;4.43;;;15.60;99.90;;;;;;5083867;28;20963;-85
2021/06/14 05:43:18;;;;;;;6.93;5.20;;;15.80;99.90;;;;;;5101992;28;20170;-84
2021/06/14 05:45:44;;;;;;;4.43;3.97;;;16.10;99.90;;;;;;5110166;28;20187;-83
2021/06/14 05:48:10;;;;;;;3.50;3.20;;;16.10;99.90;;;;;;5109685;28;20421;-83
2021/06/14 05:50:36;;;;;;;6.27;4.40;;;15.80;99.90;;;;;;5109291;28;20159;-84
2021/06/14 05:53:02;;;;;;;8.27;3.90;;;15.60;99.90;;;;;;5109821;28;20428;-83
2021/06/14 05:55:28;;;;;;;8.80;3.67;;;15.70;99.90;;;;;;5110397;28;20564;-84
2021/06/14 05:57:55;;;;;;;4.90;4.30;;;16.10;99.90;;;;;;5110906;28;20241;-84
2021/06/14 06:00:21;;;;;;;9.80;3.90;;;15.80;99.90;;;;;;5108598;28;20198;-83
2021/06/14 06:02:47;;;;;;;5.47;3.63;;;16.20;99.90;;;;;;5109782;28;20397;-83
2021/06/14 06:05:13;;;;;;;7.83;3.47;;;16.30;99.90;;;;;;5115085;28;20397;-81
2021/06/14 06:07:39;;;;;;;6.93;3.60;;;16.10;99.90;;;;;;5117535;28;20190;-82
2021/06/14 06:10:07;;;;;;;3.63;3.30;;;16.10;99.90;;;;;;5117466;28;20413;-82
2021/06/14 06:12:33;;;;;;;7.87;3.33;;;16.30;99.90;;;;;;5111693;28;20174;-84
2021/06/14 06:15:01;;;;;;;3.13;2.93;;;16.20;99.90;;;;;;5110218;28;20421;-84
2021/06/14 06:17:27;;;;;;;3.70;3.30;;;16.40;99.90;;;;;;5108478;28;20440;-83
2021/06/14 06:19:53;;;;;;;8.93;3.70;;;16.50;99.90;;;;;;5108441;28;20476;-83
2021/06/14 06:22:28;;;;;;;3.87;3.53;;;16.40;99.90;;;;;;5111254;28;20453;-82
2021/06/14 06:24:54;;;;;;;4.57;3.93;;;16.70;99.90;;;;;;5071849;28;20191;-83
2021/06/14 06:27:19;;;;;;;4.07;3.77;;;16.60;99.90;;;;;;5070462;28;20429;-83
2021/06/14 06:29:45;;;;;;;4.50;3.70;;;16.60;99.90;;;;;;5070103;28;20171;-83
2021/06/14 06:32:11;;;;;;;12.63;4.20;;;16.60;99.90;;;;;;5087666;28;20184;-84
2021/06/14 06:34:38;;;;;;;4.77;2.87;;;16.80;99.90;;;;;;5054946;28;20897;-83
2021/06/14 06:37:04;;;;;;;4.17;3.37;;;16.80;99.90;;;;;;5088916;28;20433;-82
2021/06/14 06:39:32;;;;;;;5.80;3.60;;;16.90;99.90;;;;;;5087612;28;20552;-83
2021/06/14 06:42:00;;;;;;;5.93;3.77;;;17.00;99.90;;;;;;5070471;28;20812;-82
2021/06/14 06:44:26;;;;;;;12.50;3.37;;;16.80;99.90;;;;;;5068689;28;20417;-83
2021/06/14 06:46:51;;;;;;;6.07;3.87;;;16.80;99.90;;;;;;5085790;28;20444;-83
2021/06/14 06:49:17;;;;;;;4.67;3.63;;;16.80;99.90;;;;;;5103928;28;20171;-83
2021/06/14 06:51:43;;;;;;;6.60;3.37;;;17.00;99.90;;;;;;5091035;28;20635;-83
2021/06/14 06:54:12;;;;;;;5.70;3.17;;;17.30;99.90;;;;;;5086036;28;20183;-83
2021/06/14 06:56:49;;;;;;;5.33;3.10;;;17.50;99.90;;;;;;5053043;28;20417;-83
2021/06/14 06:59:15;;;;;;;4.70;3.20;;;17.30;99.90;;;;;;5081229;28;20607;-82
2021/06/14 07:01:40;;;;;;;8.87;4.30;;;17.20;99.90;;;;;;5077235;28;20849;-81
2021/06/14 07:04:07;;;;;;;3.50;3.20;;;17.20;99.90;;;;;;5059415;28;20516;-81
2021/06/14 07:06:33;;;;;;;7.90;4.53;;;17.20;99.90;;;;;;5060490;28;20167;-82
2021/06/14 07:08:59;;;;;;;5.60;4.17;;;17.10;99.90;;;;;;5093308;28;20514;-83
2021/06/14 07:11:27;;;;;;;4.30;3.90;;;17.20;99.90;;;;;;5100154;28;20166;-83
2021/06/14 07:13:53;;;;;;;4.53;3.30;;;17.20;99.90;;;;;;5107133;28;20784;-82
2021/06/14 07:16:20;;;;;;;7.63;4.10;;;17.40;99.90;;;;;;5107709;28;20421;-79
2021/06/14 07:18:45;;;;;;;6.87;3.20;;;17.40;99.90;;;;;;5101711;28;20432;-79
2021/06/14 07:21:15;;;;;;;4.50;3.97;;;17.50;99.90;;;;;;5099777;28;20929;-83
2021/06/14 07:23:41;;;;;;;10.83;4.17;;;17.70;99.90;;;;;;5097409;28;20186;-82
2021/06/14 07:26:08;;;;;;;5.60;3.50;;;17.60;99.90;;;;;;5095541;28;20535;-82
2021/06/14 07:28:34;;;;;;;5.93;3.70;;;17.70;99.90;;;;;;5098639;28;20929;-82
2021/06/14 07:31:02;;;;;;;5.50;3.13;;;17.80;99.90;;;;;;5098948;28;20450;-82
2021/06/14 07:33:28;;;;;;;3.87;3.27;;;18.00;99.90;;;;;;5081017;28;20420;-82
2021/06/14 07:35:54;;;;;;;6.00;3.77;;;18.20;99.90;;;;;;5097825;28;20759;-82
2021/06/14 07:38:21;;;;;;;4.97;3.30;;;18.20;99.90;;;;;;5097985;28;20190;-81
2021/06/14 07:40:47;;;;;;;4.23;3.47;;;18.20;99.90;;;;;;5098480;28;20961;-82
2021/06/14 07:43:14;;;;;;;4.00;3.17;;;18.20;99.90;;;;;;5080550;28;20498;-82
2021/06/14 07:45:41;;;;;;;5.47;3.03;;;18.20;99.90;;;;;;5099403;28;20415;-82
2021/06/14 07:48:09;;;;;;;5.60;3.67;;;18.30;99.90;;;;;;5099602;28;20440;-81
2021/06/14 07:50:35;;;;;;;8.77;4.03;;;18.20;99.90;;;;;;5098727;28;20425;-79
2021/06/14 07:53:01;;;;;;;4.97;3.70;;;18.20;99.90;;;;;;5097710;28;20427;-82
2021/06/14 07:55:28;;;;;;;3.73;3.13;;;18.70;99.90;;;;;;5098223;28;20486;-82
2021/06/14 07:57:54;;;;;;;5.47;3.57;;;18.70;99.90;;;;;;5088017;28;20429;-82
2021/06/14 08:00:20;;;;;;;7.90;3.00;;;18.80;99.90;;;;;;5073844;28;20544;-81
2021/06/14 08:02:47;;;;;;;5.70;2.77;;;18.60;99.90;;;;;;5087547;28;20420;-81
2021/06/14 08:05:13;;;;;;;12.00;3.53;;;18.80;99.90;;;;;;5098752;28;20515;-81
2021/06/14 08:07:39;;;;;;;5.23;3.30;;;18.90;99.90;;;;;;5099135;28;20433;-82
2021/06/14 08:10:09;;;;;;;9.70;4.00;;;18.70;99.90;;;;;;5098711;28;20459;-81
2021/06/14 08:12:40;;;;;;;7.40;4.30;;;18.80;99.90;;;;;;5096807;28;20427;-82
2021/06/14 08:15:07;;;;;;;5.83;3.67;;;18.80;99.90;;;;;;5099086;28;20436;-83
2021/06/14 08:17:32;;;;;;;4.20;3.53;;;19.00;99.90;;;;;;5098653;28;20397;-83
2021/06/14 08:20:07;;;;;;;5.53;3.37;;;19.30;99.90;;;;;;5098669;28;20543;-83
2021/06/14 08:25:02;;;;;;;3.00;2.80;;;19.10;99.90;;;;;;5098371;28;20265;-83
2021/06/14 08:25:18;;;;;;;5.07;2.73;;;19.10;99.90;;;;;;5097538;28;20900;-82
2021/06/14 08:27:46;;;;;;;6.70;4.37;;;19.30;99.90;;;;;;5095088;28;20417;-82
2021/06/14 08:30:16;;;;;;;4.70;4.03;;;19.30;99.90;;;;;;5098189;28;20178;-86
2021/06/14 08:32:45;;;;;;;3.60;3.20;;;19.20;99.90;;;;;;5103564;28;20425;-83
2021/06/14 08:35:15;;;;;;;7.07;3.23;;;19.30;99.90;;;;;;5098989;28;20486;-82
2021/06/14 08:37:43;;;;;;;8.07;3.70;;;19.20;99.90;;;;;;5080091;28;20401;-81
2021/06/14 08:40:11;;;;;;;7.33;4.53;;;19.30;99.90;;;;;;5097562;28;20486;-82
2021/06/14 08:42:37;;;;;;;4.43;3.47;;;19.40;99.90;;;;;;5098348;28;20409;-82
2021/06/14 08:45:05;;;;;;;3.63;3.00;;;19.40;99.90;;;;;;5101897;28;20489;-81
2021/06/14 08:47:32;;;;;;;4.27;3.57;;;19.40;99.90;;;;;;5084118;28;20163;-81
2021/06/14 08:49:59;;;;;;;9.70;4.20;;;19.30;99.90;;;;;;5102575;28;20427;-82
2021/06/14 08:52:25;;;;;;;10.60;4.00;;;19.70;99.90;;;;;;5084064;28;20397;-81
2021/06/14 08:54:51;;;;;;;5.83;3.30;;;19.70;99.90;;;;;;5101143;28;20457;-79
2021/06/14 08:57:17;;;;;;;6.17;4.03;;;19.80;99.90;;;;;;5104185;28;20431;-80
2021/06/14 08:59:44;;;;;;;7.57;3.67;;;19.80;99.90;;;;;;5065249;28;20441;-80
2021/06/14 09:02:11;;;;;;;4.83;4.40;;;19.60;99.90;;;;;;5101206;28;20413;-81
2021/06/14 09:04:37;;;;;;;8.80;3.13;;;19.60;99.90;;;;;;5085387;28;20397;-79
2021/06/14 09:07:04;;;;;;;4.90;3.40;;;19.60;99.90;;;;;;5106579;28;20769;-80
2021/06/14 09:09:31;;;;;;;3.13;2.90;;;19.80;99.90;;;;;;5106892;28;20823;-80
2021/06/14 09:11:59;;;;;;;4.93;4.03;;;19.70;99.90;;;;;;5108184;28;20407;-79
2021/06/14 09:14:28;;;;;;;7.63;3.53;;;19.70;99.90;;;;;;5105591;28;20526;-81
2021/06/14 09:17:01;;;;;;;4.23;3.20;;;19.90;99.90;;;;;;5106620;28;20425;-81
2021/06/14 09:19:33;;;;;;;9.10;3.57;;;19.80;99.90;;;;;;5106171;28;20401;-81
2021/06/14 09:22:14;;;;;;;5.37;3.30;;;20.10;99.90;;;;;;5105732;28;20421;-80
2021/06/14 09:24:53;;;;;;;5.33;4.23;;;20.20;99.90;;;;;;5106911;28;20881;-80
2021/06/14 09:27:50;;;;;;;4.33;3.43;;;20.40;99.90;;;;;;5107086;28;20416;-79
2021/06/14 09:30:24;;;;;;;6.77;4.10;;;20.00;99.90;;;;;;5103545;28;20504;-81
2021/06/14 09:33:12;;;;;;;4.87;3.40;;;20.20;99.90;;;;;;5103775;28;20439;-81
2021/06/14 09:35:41;;;;;;;4.40;3.90;;;20.60;99.90;;;;;;5103642;28;20573;-81
2021/06/14 09:38:11;;;;;;;7.30;3.77;;;20.60;99.90;;;;;;5067350;28;20418;-81
2021/06/14 09:40:41;;;;;;;3.53;3.20;;;20.80;99.90;;;;;;5104017;28;20479;-81
2021/06/14 09:43:20;;;;;;;4.33;3.03;;;20.90;99.90;;;;;;5104213;28;20451;-81
2021/06/14 09:45:46;;;;;;;4.13;3.23;;;21.10;99.90;;;;;;5104405;28;20525;-81
2021/06/14 09:48:16;;;;;;;6.00;3.93;;;21.10;99.90;;;;;;5102889;28;20436;-81
2021/06/14 09:50:45;;;;;;;5.23;3.30;;;20.90;99.90;;;;;;5106491;28;20163;-81
2021/06/14 09:53:13;;;;;;;3.90;3.60;;;20.80;99.90;;;;;;5083808;28;20422;-81
2021/06/14 09:55:41;;;;;;;6.67;3.60;;;20.90;99.90;;;;;;5084141;28;20472;-81
2021/06/14 09:58:12;;;;;;;3.77;3.30;;;21.10;99.90;;;;;;5069127;28;20402;-81
2021/06/14 10:01:02;;;;;;;7.00;4.10;;;21.00;99.90;;;;;;5081098;28;20445;-78
2021/06/14 10:03:42;;;;;;;3.53;2.97;;;21.00;99.90;;;;;;5122814;28;20471;-81
2021/06/14 10:06:08;;;;;;;5.53;3.80;;;21.50;99.90;;;;;;5127990;27;20424;-81
2021/06/14 10:08:35;;;;;;;6.87;4.00;;;21.10;99.90;;;;;;5070413;28;20448;-81
2021/06/14 10:11:07;;;;;;;5.93;3.87;;;21.40;99.90;;;;;;5104189;28;20389;-79
2021/06/14 10:13:35;;;;;;;4.50;3.10;;;21.90;99.90;;;;;;5103541;28;20435;-81
2021/06/14 10:16:08;;;;;;;6.43;4.13;;;21.70;99.90;;;;;;5089067;28;20401;-80
2021/06/14 10:18:40;;;;;;;6.10;3.67;;;21.40;99.90;;;;;;5110208;28;20419;-79
2021/06/14 10:21:20;;;;;;;3.50;3.20;;;21.40;99.90;;;;;;5108213;28;20449;-82
2021/06/14 10:23:46;;;;;;;9.93;3.87;;;21.70;99.90;;;;;;5104722;28;20818;-82
2021/06/14 10:26:12;;;;;;;4.77;3.70;;;21.80;99.90;;;;;;5102442;28;20401;-82
2021/06/14 10:28:38;;;;;;;4.40;3.30;;;22.10;99.90;;;;;;5102848;28;20556;-82
2021/06/14 10:31:05;;;;;;;5.40;3.13;;;21.90;99.90;;;;;;5112945;28;20176;-82
2021/06/14 10:33:31;;;;;;;3.37;2.90;;;22.00;99.90;;;;;;5101988;28;20436;-82
2021/06/14 10:35:57;;;;;;;4.43;3.10;;;22.30;99.90;;;;;;5105589;28;20412;-82
2021/06/14 10:38:24;;;;;;;3.80;2.73;;;22.20;99.90;;;;;;5104157;28;20177;-82
2021/06/14 10:40:52;;;;;;;3.07;2.83;;;22.20;99.90;;;;;;5081842;28;20605;-82
2021/06/14 10:43:21;;;;;;;8.73;3.87;;;22.40;99.90;;;;;;5100676;28;20400;-83
2021/06/14 10:45:47;;;;;;;3.27;3.00;;;22.70;99.90;;;;;;5102199;28;20553;-82
2021/06/14 10:48:13;;;;;;;7.63;3.23;;;22.40;99.90;;;;;;5103136;28;20909;-82
2021/06/14 10:50:39;;;;;;;7.07;3.90;;;22.50;99.90;;;;;;5066711;28;20213;-82
2021/06/14 10:53:05;;;;;;;7.50;3.70;;;22.50;99.90;;;;;;5105515;28;20432;-80
2021/06/14 10:55:35;;;;;;;4.27;2.80;;;22.70;99.90;;;;;;5102552;28;20420;-80
2021/06/14 10:58:04;;;;;;;4.80;3.53;;;22.60;99.90;;;;;;5099901;28;20421;-82
2021/06/14 11:00:34;;;;;;;3.87;3.40;;;23.30;99.90;;;;;;5099434;28;20452;-82
2021/06/14 11:03:03;;;;;;;5.50;4.10;;;23.40;99.90;;;;;;5100555;28;20734;-82
2021/06/14 11:05:35;;;;;;;4.07;3.53;;;23.10;99.90;;;;;;5098492;28;20429;-82
2021/06/14 11:08:17;;;;;;;3.87;3.57;;;23.30;99.90;;;;;;5098943;28;20515;-82
2021/06/14 11:10:48;;;;;;;4.73;2.93;;;23.10;99.90;;;;;;5100410;28;20393;-82
2021/06/14 11:13:16;;;;;;;4.57;3.73;;;23.10;99.90;;;;;;5098985;28;20443;-82
2021/06/14 11:15:48;;;;;;;3.97;3.17;;;23.10;99.90;;;;;;5100442;28;20435;-82
2021/06/14 11:18:31;;;;;;;4.87;3.10;;;23.60;99.90;;;;;;5099648;28;20425;-82
2021/06/14 11:21:19;;;;;;;5.93;3.80;;;23.50;99.90;;;;;;5091139;28;20457;-85
2021/06/14 11:23:48;;;;;;;3.70;2.90;;;23.20;99.90;;;;;;5097151;28;20424;-81
2021/06/14 11:26:27;;;;;;;3.07;2.77;;;23.60;99.90;;;;;;5096177;28;20425;-82
2021/06/14 11:28:53;;;;;;;4.17;3.77;;;24.40;98.80;;;;;;5099279;28;20448;-82
2021/06/14 11:31:24;;;;;;;3.50;3.03;;;24.60;98.40;;;;;;5100628;28;20401;-82
2021/06/14 11:33:55;;;;;;;6.47;2.90;;;24.90;99.90;;;;;;5085187;28;20397;-82
2021/06/14 11:36:26;;;;;;;3.60;3.30;;;23.80;99.20;;;;;;5105115;28;20424;-80
2021/06/14 11:38:54;;;;;;;6.20;3.53;;;24.30;98.10;;;;;;5107623;28;20582;-81
2021/06/14 11:41:33;;;;;;;3.97;3.13;;;25.00;97.50;;;;;;5107296;28;20549;-82
2021/06/14 11:44:20;;;;;;;5.33;4.40;;;24.60;97.10;;;;;;5101662;28;20407;-82
2021/06/14 11:46:48;;;;;;;4.10;2.90;;;24.00;97.00;;;;;;5099047;28;20487;-83
2021/06/14 11:49:14;;;;;;;6.53;3.40;;;24.00;97.60;;;;;;5101478;28;20411;-82
2021/06/14 11:51:40;;;;;;;4.77;3.70;;;24.00;98.00;;;;;;5100043;28;20496;-83
2021/06/14 11:54:07;;;;;;;4.37;3.00;;;24.00;97.30;;;;;;5097760;28;20500;-82
2021/06/14 11:56:36;;;;;;;4.60;3.50;;;24.20;96.90;;;;;;5098610;28;20163;-81
2021/06/14 11:59:03;;;;;;;6.40;3.20;;;24.10;97.10;;;;;;5079686;28;20757;-81
2021/06/14 12:01:33;;;;;;;4.07;3.67;;;24.40;95.80;;;;;;5093936;28;20455;-81
2021/06/14 12:04:01;;;;;;;3.53;3.20;;;24.40;95.10;;;;;;5097867;28;20416;-82
2021/06/14 12:06:28;;;;;;;3.43;3.23;;;24.50;96.90;;;;;;5099790;28;20409;-81
2021/06/14 12:09:07;;;;;;;3.80;3.10;;;24.70;93.80;;;;;;5078167;28;20436;-82
2021/06/14 12:11:33;;;;;;;3.10;2.90;;;24.40;94.00;;;;;;5062588;28;20405;-82
2021/06/14 12:14:11;;;;;;;4.10;3.70;;;24.90;95.80;;;;;;5098136;28;20392;-81
2021/06/14 12:16:36;;;;;;;6.10;3.30;;;24.80;94.00;;;;;;5097783;28;20166;-82
2021/06/14 12:19:02;;;;;;;6.00;3.80;;;24.70;93.50;;;;;;5088335;28;20513;-84
2021/06/14 12:21:28;;;;;;;4.07;3.77;;;24.80;93.40;;;;;;5109636;28;20200;-82
2021/06/14 12:23:54;;;;;;;5.53;3.90;;;25.00;93.20;;;;;;5107800;28;20207;-83
2021/06/14 12:26:20;;;;;;;4.63;3.77;;;24.80;95.30;;;;;;5108092;28;20159;-83
2021/06/14 12:28:46;;;;;;;3.20;2.87;;;25.00;93.30;;;;;;5091433;28;20446;-83
2021/06/14 12:31:14;;;;;;;4.27;3.70;;;25.00;93.60;;;;;;5107903;28;20276;-81
2021/06/14 12:33:42;;;;;;;5.63;3.93;;;24.70;93.10;;;;;;5108750;28;20459;-82
2021/06/14 12:36:11;;;;;;;4.57;3.80;;;25.00;93.60;;;;;;5092241;28;20403;-83
2021/06/14 12:38:46;;;;;;;5.23;3.03;;;24.90;94.60;;;;;;5108588;28;20460;-83
2021/06/14 12:41:17;;;;;;;6.77;4.03;;;24.70;93.20;;;;;;5111101;28;20986;-84
2021/06/14 12:43:43;;;;;;;4.13;3.43;;;24.90;93.90;;;;;;5084744;28;20601;-83
2021/06/14 12:46:09;;;;;;;5.80;3.13;;;25.20;93.00;;;;;;5057068;28;20414;-82
2021/06/14 12:48:35;;;;;;;3.60;3.07;;;25.10;92.20;;;;;;5051063;28;20160;-83
2021/06/14 12:51:01;;;;;;;3.40;3.00;;;25.50;91.50;;;;;;5047385;28;20183;-83